createdAt,value
2022-10-05T00:00:16.981Z,7.60
2022-10-05T00:02:44.107Z,5.75
2022-10-05T00:05:29.689Z,8.38
2022-10-05T00:07:57.941Z,6.65
2022-10-05T00:10:24.866Z,7.05
2022-10-05T00:12:51.584Z,7.07
2022-10-05T00:15:19.610Z,8.00
2022-10-05T00:17:46.455Z,6.40
2022-10-05T00:20:33.292Z,7.53
2022-10-05T00:23:01.829Z,5.70
2022-10-05T00:25:28.674Z,6.60
2022-10-05T00:27:57.508Z,6.68
2022-10-05T00:30:26.206Z,6.53
2022-10-05T00:32:58.654Z,6.45
2022-10-05T00:35:28.317Z,6.47
2022-10-05T00:37:55.509Z,5.25
2022-10-05T00:40:43.891Z,6.22
2022-10-05T00:43:22.708Z,5.30
2022-10-05T00:45:55.262Z,5.93
2022-10-05T00:48:59.406Z,5.13
2022-10-05T00:51:31.789Z,6.00
2022-10-05T00:54:23.198Z,5.50
2022-10-05T00:56:55.733Z,5.38
2022-10-05T00:59:28.168Z,6.28
2022-10-05T01:02:02.735Z,5.65
2022-10-05T01:04:49.821Z,6.32
2022-10-05T01:07:52.141Z,5.10
2022-10-05T01:10:30.921Z,5.90
2022-10-05T01:13:14.724Z,6.38
2022-10-05T01:15:52.087Z,5.43
2022-10-05T01:18:26.597Z,6.32
2022-10-05T01:21:13.431Z,4.95
2022-10-05T01:23:49.174Z,4.82
2022-10-05T01:27:03.935Z,5.88
2022-10-05T01:29:30.482Z,5.28
2022-10-05T01:32:01.685Z,5.18
2022-10-05T01:34:51.604Z,5.22
2022-10-05T01:37:30.374Z,5.50
2022-10-05T01:40:29.655Z,4.90
2022-10-05T01:43:02.414Z,5.03
2022-10-05T01:45:47.940Z,4.85
2022-10-05T01:51:23.593Z,4.72
2022-10-05T01:54:08.496Z,5.25
2022-10-05T01:56:44.048Z,4.40
2022-10-05T01:59:23.981Z,4.82
2022-10-05T02:02:26.334Z,4.13
2022-10-05T02:05:10.566Z,4.43
2022-10-05T02:07:41.710Z,4.65
2022-10-05T02:10:33.430Z,4.10
2022-10-05T02:13:25.769Z,4.93
2022-10-05T02:16:01.105Z,4.78
2022-10-05T02:18:32.999Z,5.18
2022-10-05T02:21:01.606Z,4.60
2022-10-05T02:23:32.385Z,5.43
2022-10-05T02:26:01.396Z,5.47
2022-10-05T02:28:28.113Z,5.63
2022-10-05T02:31:01.300Z,4.65
2022-10-05T02:33:30.318Z,5.18
2022-10-05T02:36:15.578Z,5.78
2022-10-05T02:38:45.290Z,5.47
2022-10-05T02:41:27.711Z,5.57
2022-10-05T02:44:23.500Z,5.50
2022-10-05T02:47:08.683Z,4.90
2022-10-05T02:49:56.463Z,4.80
2022-10-05T02:53:01.693Z,5.28
2022-10-05T02:55:54.921Z,4.60
2022-10-05T02:58:24.113Z,6.18
2022-10-05T03:01:16.290Z,4.80
2022-10-05T03:04:12.352Z,5.55
2022-10-05T03:06:46.876Z,4.72
2022-10-05T03:09:16.301Z,6.15
2022-10-05T03:12:01.683Z,4.88
2022-10-05T03:14:49.177Z,5.15
2022-10-05T03:17:22.787Z,6.05
2022-10-05T03:20:01.565Z,5.28
2022-10-05T03:22:49.786Z,5.03
2022-10-05T03:25:42.755Z,4.88
2022-10-05T03:28:47.579Z,5.15
2022-10-05T03:31:26.660Z,5.28
2022-10-05T03:34:00.828Z,5.32
2022-10-05T03:36:32.566Z,4.82
2022-10-05T03:39:11.267Z,4.95
2022-10-05T03:41:42.725Z,5.03
2022-10-05T03:44:20.866Z,4.97
2022-10-05T03:46:53.658Z,4.45
2022-10-05T03:49:44.236Z,5.47
2022-10-05T03:52:16.611Z,4.85
2022-10-05T03:54:51.095Z,4.78
2022-10-05T03:57:23.033Z,5.22
2022-10-05T03:59:59.953Z,5.63
2022-10-05T04:02:28.739Z,4.82
2022-10-05T04:05:18.640Z,5.47
2022-10-05T04:08:07.937Z,5.50
2022-10-05T04:10:43.859Z,5.47
2022-10-05T04:13:37.390Z,5.05
2022-10-05T04:16:28.280Z,5.60
2022-10-05T04:18:59.545Z,5.63
2022-10-05T04:21:32.833Z,5.13
2022-10-05T04:24:09.893Z,6.15
2022-10-05T04:26:48.553Z,6.55
2022-10-05T04:29:35.110Z,6.88
2022-10-05T04:32:15.530Z,8.07
2022-10-05T04:35:04.122Z,6.47
2022-10-05T04:37:45.664Z,5.78
2022-10-05T04:40:25.333Z,5.82
2022-10-05T04:43:16.582Z,6.38
2022-10-05T04:46:01.461Z,6.35
2022-10-05T04:48:49.680Z,6.10
2022-10-05T04:51:25.182Z,7.65
2022-10-05T04:53:58.049Z,4.93
2022-10-05T04:56:33.475Z,5.38
2022-10-05T04:59:20.349Z,4.95
2022-10-05T05:02:18.237Z,5.97
2022-10-05T05:05:00.125Z,5.30
2022-10-05T05:07:59.209Z,5.10
2022-10-05T05:10:28.729Z,5.38
2022-10-05T05:13:22.133Z,6.00
2022-10-05T05:16:02.289Z,5.00
2022-10-05T05:18:39.312Z,4.70
2022-10-05T05:21:05.902Z,6.18
2022-10-05T05:23:37.710Z,5.38
2022-10-05T05:26:17.462Z,4.90
2022-10-05T05:28:49.852Z,5.10
2022-10-05T05:31:28.759Z,4.95
2022-10-05T05:34:20.259Z,4.50
2022-10-05T05:37:22.170Z,4.80
2022-10-05T05:40:08.691Z,6.72
2022-10-05T05:42:59.923Z,3.75
2022-10-05T05:45:38.744Z,4.75
2022-10-05T05:48:15.681Z,5.35
2022-10-05T05:50:49.362Z,5.47
2022-10-05T05:53:21.123Z,4.20
2022-10-05T05:55:51.678Z,4.80
2022-10-05T05:58:31.932Z,3.90
2022-10-05T06:01:00.345Z,4.32
2022-10-05T06:04:05.440Z,4.75
2022-10-05T06:06:34.537Z,4.50
2022-10-05T06:09:03.812Z,3.95
2022-10-05T06:11:40.802Z,3.45
2022-10-05T06:14:18.651Z,4.60
2022-10-05T06:16:50.363Z,3.97
2022-10-05T06:19:19.668Z,3.45
2022-10-05T06:22:26.053Z,4.22
2022-10-05T06:25:11.523Z,3.88
2022-10-05T06:28:12.714Z,4.00
2022-10-05T06:30:58.422Z,3.70
2022-10-05T06:33:46.089Z,5.55
2022-10-05T06:36:17.819Z,3.85
2022-10-05T06:39:11.725Z,4.82
2022-10-05T06:41:56.274Z,4.82
2022-10-05T06:44:26.893Z,4.47
2022-10-05T06:47:13.674Z,3.42
2022-10-05T06:49:46.994Z,3.38
2022-10-05T06:52:49.775Z,3.55
2022-10-05T06:55:42.942Z,3.65
2022-10-05T06:58:12.473Z,4.03
2022-10-05T07:00:42.748Z,4.03
2022-10-05T07:03:21.426Z,3.42
2022-10-05T07:06:18.367Z,3.05
2022-10-05T07:08:51.016Z,3.55
2022-10-05T07:11:32.767Z,2.95
2022-10-05T07:14:05.374Z,3.85
2022-10-05T07:17:00.863Z,3.08
2022-10-05T07:19:32.844Z,3.83
2022-10-05T07:22:02.452Z,2.92
2022-10-05T07:24:34.308Z,3.33
2022-10-05T07:27:03.675Z,3.28
2022-10-05T07:29:55.319Z,3.47
2022-10-05T07:32:36.541Z,3.83
2022-10-05T07:35:05.748Z,3.67
2022-10-05T07:37:57.280Z,3.92
2022-10-05T07:40:39.359Z,2.80
2022-10-05T07:43:08.279Z,2.65
2022-10-05T07:45:42.457Z,3.75
2022-10-05T07:48:17.628Z,3.20
2022-10-05T07:50:56.745Z,3.20
2022-10-05T07:53:35.687Z,2.47
2022-10-05T07:56:29.742Z,2.83
2022-10-05T07:59:07.779Z,2.90
2022-10-05T08:01:35.767Z,4.18
2022-10-05T08:04:12.799Z,2.42
2022-10-05T08:06:56.929Z,2.97
2022-10-05T08:09:32.638Z,2.85
2022-10-05T08:12:20.808Z,3.17
2022-10-05T08:14:56.105Z,3.22
2022-10-05T08:20:21.643Z,2.67
2022-10-05T08:22:54.694Z,3.70
2022-10-05T08:25:26.160Z,2.92
2022-10-05T08:28:11.637Z,2.97
2022-10-05T08:30:54.016Z,3.35
2022-10-05T08:33:22.445Z,2.67
2022-10-05T08:36:08.961Z,3.17
2022-10-05T08:38:35.790Z,3.20
2022-10-05T08:41:24.656Z,2.85
2022-10-05T08:44:29.077Z,2.22
2022-10-05T08:47:14.476Z,4.20
2022-10-05T08:49:56.470Z,3.15
2022-10-05T08:53:15.847Z,2.25
2022-10-05T08:56:23.112Z,2.58
2022-10-05T08:59:05.085Z,2.55
2022-10-05T09:01:47.467Z,3.20
2022-10-05T09:04:17.599Z,3.15
2022-10-05T09:07:05.682Z,3.83
2022-10-05T09:10:01.426Z,2.50
2022-10-05T09:12:51.301Z,2.80
2022-10-05T09:15:25.848Z,2.65
2022-10-05T09:18:21.380Z,2.33
2022-10-05T09:20:54.487Z,2.20
2022-10-05T09:23:39.666Z,3.28
2022-10-05T09:26:23.442Z,2.65
2022-10-05T09:29:13.062Z,2.75
2022-10-05T09:31:51.729Z,2.85
2022-10-05T09:34:21.080Z,2.65
2022-10-05T09:37:21.848Z,2.90
2022-10-05T09:40:23.570Z,2.70
2022-10-05T09:42:55.410Z,3.25
2022-10-05T09:45:28.339Z,2.28
2022-10-05T09:48:39.584Z,2.60
2022-10-05T09:51:29.303Z,2.30
2022-10-05T09:54:19.040Z,3.00
2022-10-05T09:56:45.853Z,2.45
2022-10-05T09:59:31.556Z,2.47
2022-10-05T10:02:39.115Z,2.17
2022-10-05T10:05:27.086Z,2.40
2022-10-05T10:08:12.294Z,2.35
2022-10-05T10:10:49.116Z,2.97
2022-10-05T10:13:34.173Z,1.75
2022-10-05T10:16:03.519Z,3.42
2022-10-05T10:18:30.180Z,2.30
2022-10-05T10:21:30.568Z,2.33
2022-10-05T10:24:19.819Z,2.80
2022-10-05T10:27:01.927Z,2.15
2022-10-05T10:29:28.618Z,2.42
2022-10-05T10:32:02.177Z,1.98
2022-10-05T10:34:50.526Z,2.50
2022-10-05T10:37:39.662Z,2.63
2022-10-05T10:40:20.332Z,2.30
2022-10-05T10:42:56.374Z,3.03
2022-10-05T10:45:48.260Z,2.00
2022-10-05T10:48:30.358Z,1.90
2022-10-05T10:51:09.494Z,2.97
2022-10-05T10:53:44.405Z,2.35
2022-10-05T10:56:38.568Z,2.22
2022-10-05T10:59:35.885Z,2.70
2022-10-05T11:02:15.068Z,2.25
2022-10-05T11:05:19.888Z,1.90
2022-10-05T11:07:52.203Z,2.47
2022-10-05T11:10:36.912Z,2.30
2022-10-05T11:13:22.158Z,2.47
2022-10-05T11:15:48.930Z,2.28
2022-10-05T11:18:20.506Z,2.88
2022-10-05T11:21:21.012Z,2.33
2022-10-05T11:24:03.945Z,2.00
2022-10-05T11:26:45.437Z,2.67
2022-10-05T11:29:51.445Z,2.50
2022-10-05T11:32:42.766Z,3.30
2022-10-05T11:35:37.398Z,2.30
2022-10-05T11:38:26.852Z,2.78
2022-10-05T11:41:14.960Z,2.22
2022-10-05T11:43:53.904Z,2.58
2022-10-05T11:46:43.334Z,2.10
2022-10-05T11:49:35.960Z,3.60
2022-10-05T11:52:02.849Z,3.13
2022-10-05T11:55:05.857Z,2.17
2022-10-05T11:57:37.902Z,2.60
2022-10-05T12:00:10.875Z,2.55
2022-10-05T12:02:57.061Z,2.20
2022-10-05T12:05:45.179Z,2.45
2022-10-05T12:08:41.938Z,2.72
2022-10-05T12:11:25.884Z,1.75
2022-10-05T12:14:34.423Z,2.22
2022-10-05T12:17:03.777Z,2.80
2022-10-05T12:19:41.180Z,2.70
2022-10-05T12:22:18.049Z,2.50
2022-10-05T12:24:44.593Z,2.33
2022-10-05T12:27:14.264Z,1.92
2022-10-05T12:30:13.510Z,2.30
2022-10-05T12:33:02.370Z,1.90
2022-10-05T12:35:53.787Z,1.98
2022-10-05T12:38:28.647Z,2.55
2022-10-05T12:41:07.330Z,2.58
2022-10-05T12:43:51.031Z,1.83
2022-10-05T12:46:34.522Z,2.17
2022-10-05T12:49:16.077Z,1.80
2022-10-05T12:52:00.050Z,3.65
2022-10-05T12:54:39.112Z,1.63
2022-10-05T12:57:21.426Z,1.90
2022-10-05T12:59:52.810Z,2.03
2022-10-05T13:02:28.463Z,2.15
2022-10-05T13:04:55.068Z,1.95
2022-10-05T13:07:42.926Z,2.63
2022-10-05T13:10:22.720Z,2.13
2022-10-05T13:13:24.584Z,2.50
2022-10-05T13:16:11.206Z,1.60
2022-10-05T13:18:38.624Z,2.53
2022-10-05T13:21:13.120Z,1.80
2022-10-05T13:24:20.083Z,2.22
2022-10-05T13:26:52.274Z,1.85
2022-10-05T13:29:22.280Z,2.10
2022-10-05T13:31:56.579Z,2.83
2022-10-05T13:35:01.276Z,2.60
2022-10-05T13:37:41.504Z,2.83
2022-10-05T13:40:29.222Z,1.80
2022-10-05T13:43:04.154Z,2.33
2022-10-05T13:45:51.223Z,2.92
2022-10-05T13:48:55.057Z,2.35
2022-10-05T13:51:42.728Z,2.42
2022-10-05T13:55:03.961Z,1.98
2022-10-05T13:57:55.274Z,2.53
2022-10-05T14:00:26.527Z,2.95
2022-10-05T14:02:56.636Z,2.60
2022-10-05T14:05:28.935Z,2.85
2022-10-05T14:08:00.337Z,3.03
2022-10-05T14:10:45.050Z,2.50
2022-10-05T14:13:47.034Z,3.10
2022-10-05T14:16:13.875Z,2.80
2022-10-05T14:19:01.884Z,2.00
2022-10-05T14:21:33.236Z,2.25
2022-10-05T14:24:45.307Z,2.78
2022-10-05T14:27:51.724Z,2.10
2022-10-05T14:30:23.307Z,2.70
2022-10-05T14:32:57.202Z,2.25
2022-10-05T14:35:25.981Z,2.30
2022-10-05T14:37:57.174Z,2.58
2022-10-05T14:40:28.326Z,2.38
2022-10-05T14:42:55.269Z,2.40
2022-10-05T14:45:29.946Z,2.38
2022-10-05T14:48:09.760Z,3.53
2022-10-05T14:50:56.556Z,3.17
2022-10-05T14:53:27.991Z,2.80
2022-10-05T14:56:06.805Z,4.30
2022-10-05T14:59:14.248Z,3.53
2022-10-05T15:01:48.443Z,3.15
2022-10-05T15:04:31.024Z,3.25
2022-10-05T15:07:32.361Z,3.15
2022-10-05T15:10:26.975Z,5.57
2022-10-05T15:13:35.367Z,3.10
2022-10-05T15:16:10.764Z,3.30
2022-10-05T15:18:54.088Z,3.30
2022-10-05T15:21:23.997Z,3.50
2022-10-05T15:23:58.034Z,4.03
2022-10-05T15:26:43.669Z,4.00
2022-10-05T15:31:50.627Z,3.78
2022-10-05T15:34:29.520Z,3.65
2022-10-05T15:37:25.471Z,4.00
2022-10-05T15:39:58.296Z,4.95
2022-10-05T15:42:45.286Z,4.32
2022-10-05T15:45:45.363Z,4.25
2022-10-05T15:48:39.291Z,4.88
2022-10-05T15:51:15.420Z,4.55
2022-10-05T15:54:20.405Z,4.80
2022-10-05T15:57:07.306Z,5.07
2022-10-05T16:00:04.355Z,4.65
2022-10-05T16:02:40.680Z,5.10
2022-10-05T16:05:12.796Z,6.25
2022-10-05T16:08:02.257Z,4.70
2022-10-05T16:10:32.577Z,5.25
2022-10-05T16:13:28.796Z,5.30
2022-10-05T16:16:12.058Z,5.22
2022-10-05T16:18:38.695Z,4.68
2022-10-05T16:21:21.615Z,6.63
2022-10-05T16:23:54.301Z,6.53
2022-10-05T16:26:42.766Z,7.70
2022-10-05T16:29:27.825Z,6.70
2022-10-05T16:31:59.708Z,5.80
2022-10-05T16:34:50.042Z,6.05
2022-10-05T16:37:38.123Z,5.75
2022-10-05T16:40:38.873Z,6.70
2022-10-05T16:43:29.087Z,7.05
2022-10-05T16:45:58.476Z,7.28
2022-10-05T16:49:04.332Z,8.20
2022-10-05T16:51:59.217Z,9.23
2022-10-05T16:54:31.759Z,7.53
2022-10-05T16:57:02.939Z,8.85
2022-10-05T17:00:04.134Z,9.70
2022-10-05T17:02:48.113Z,8.60
2022-10-05T17:05:21.143Z,9.27
2022-10-05T17:08:09.539Z,9.27
2022-10-05T17:11:01.150Z,8.63
2022-10-05T17:13:58.818Z,9.77
2022-10-05T17:16:54.675Z,10.02
2022-10-05T17:19:58.936Z,10.55
2022-10-05T17:22:29.455Z,10.43
2022-10-05T17:25:08.745Z,11.43
2022-10-05T17:28:11.112Z,10.40
2022-10-05T17:31:13.029Z,10.32
2022-10-05T17:34:07.450Z,11.57
2022-10-05T17:36:49.966Z,9.98
2022-10-05T17:39:21.565Z,9.77
2022-10-05T17:41:48.285Z,10.35
2022-10-05T17:44:19.526Z,10.25
2022-10-05T17:46:49.730Z,9.40
2022-10-05T17:49:39.042Z,9.55
2022-10-05T17:52:40.551Z,9.80
2022-10-05T17:55:25.904Z,9.52
2022-10-05T17:57:53.213Z,9.20
2022-10-05T18:00:25.812Z,9.75
2022-10-05T18:02:55.931Z,9.07
2022-10-05T18:05:31.717Z,8.82
2022-10-05T18:08:13.877Z,7.00
2022-10-05T18:11:05.123Z,6.97
2022-10-05T18:13:37.756Z,6.57
2022-10-05T18:16:04.825Z,6.25
2022-10-05T18:18:45.294Z,6.00
2022-10-05T18:21:14.872Z,5.43
2022-10-05T18:23:47.916Z,5.05
2022-10-05T18:26:33.412Z,5.05
2022-10-05T18:29:43.369Z,5.85
2022-10-05T18:32:39.399Z,6.07
2022-10-05T18:37:38.140Z,6.15
2022-10-05T18:40:16.843Z,6.53
2022-10-05T18:42:55.636Z,6.68
2022-10-05T18:45:42.110Z,6.43
2022-10-05T18:48:31.981Z,7.70
2022-10-05T18:51:24.558Z,7.68
2022-10-05T18:54:09.454Z,7.50
2022-10-05T18:56:38.974Z,6.53
2022-10-05T18:59:05.648Z,7.30
2022-10-05T19:02:13.480Z,8.13
2022-10-05T19:05:29.322Z,8.68
2022-10-05T19:08:12.706Z,6.70
2022-10-05T19:10:55.305Z,6.47
2022-10-05T19:13:26.277Z,5.65
2022-10-05T19:16:03.206Z,5.50
2022-10-05T19:19:00.044Z,5.10
2022-10-05T19:21:39.500Z,5.80
2022-10-05T19:24:18.245Z,6.90
2022-10-05T19:26:56.651Z,4.85
2022-10-05T19:29:23.474Z,5.90
2022-10-05T19:31:54.806Z,5.43
2022-10-05T19:34:27.573Z,5.40
2022-10-05T19:37:08.611Z,5.72
2022-10-05T19:39:41.212Z,4.82
2022-10-05T19:42:22.848Z,5.50
2022-10-05T19:45:02.783Z,4.40
2022-10-05T19:47:54.649Z,4.63
2022-10-05T19:50:31.551Z,4.82
2022-10-05T19:53:25.078Z,5.75
2022-10-05T19:55:54.242Z,5.25
2022-10-05T19:58:27.160Z,5.22
2022-10-05T20:00:59.769Z,5.03
2022-10-05T20:03:29.520Z,4.95
2022-10-05T20:06:01.182Z,4.93
2022-10-05T20:08:36.851Z,4.80
2022-10-05T20:11:21.038Z,5.07
2022-10-05T20:14:09.540Z,5.45
2022-10-05T20:16:55.028Z,5.65
2022-10-05T20:19:52.385Z,6.30
2022-10-05T20:22:32.813Z,6.45
2022-10-05T20:25:06.338Z,6.15
2022-10-05T20:27:56.673Z,4.82
2022-10-05T20:30:28.166Z,5.88
2022-10-05T20:33:01.608Z,5.20
2022-10-05T20:35:32.191Z,5.68
2022-10-05T20:38:00.204Z,5.30
2022-10-05T20:40:29.199Z,5.72
2022-10-05T20:42:56.947Z,5.30
2022-10-05T20:45:23.725Z,5.85
2022-10-05T20:47:50.812Z,6.10
2022-10-05T20:50:17.663Z,5.95
2022-10-05T20:52:44.505Z,5.85
2022-10-05T20:55:11.843Z,6.22
2022-10-05T20:57:42.146Z,6.72
2022-10-05T21:00:10.824Z,6.55
2022-10-05T21:02:38.147Z,6.07
2022-10-05T21:05:05.365Z,6.38
2022-10-05T21:07:34.345Z,7.15
2022-10-05T21:10:02.408Z,6.60
2022-10-05T21:12:29.131Z,6.40
2022-10-05T21:14:55.830Z,6.70
2022-10-05T21:17:30.834Z,6.30
2022-10-05T21:19:57.607Z,7.47
2022-10-05T21:22:25.199Z,6.82
2022-10-05T21:24:51.783Z,8.15
2022-10-05T21:27:18.402Z,7.13
2022-10-05T21:29:45.461Z,6.10
2022-10-05T21:32:20.426Z,6.63
2022-10-05T21:34:59.471Z,8.35
2022-10-05T21:37:26.050Z,7.72
2022-10-05T21:39:59.273Z,7.65
2022-10-05T21:42:26.496Z,7.00
2022-10-05T21:44:53.158Z,7.78
2022-10-05T21:47:19.802Z,7.95
2022-10-05T21:49:46.589Z,7.25
2022-10-05T21:52:13.297Z,6.88
2022-10-05T21:54:42.326Z,7.13
2022-10-05T21:57:11.350Z,6.60
2022-10-05T21:59:38.162Z,7.20
2022-10-05T22:02:05.035Z,5.93
2022-10-05T22:04:31.777Z,5.88
2022-10-05T22:06:58.762Z,5.90
2022-10-05T22:09:25.538Z,5.57
2022-10-05T22:11:52.282Z,5.88
2022-10-05T22:14:19.012Z,6.35
2022-10-05T22:16:45.992Z,5.47
2022-10-05T22:19:18.909Z,5.55
2022-10-05T22:21:45.533Z,5.63
2022-10-05T22:24:12.185Z,5.70
2022-10-05T22:26:40.427Z,5.25
2022-10-05T22:29:07.364Z,5.63
2022-10-05T22:31:34.217Z,5.22
2022-10-05T22:34:01.029Z,5.78
2022-10-05T22:36:27.774Z,5.25
2022-10-05T22:38:54.543Z,5.32
2022-10-05T22:41:21.394Z,5.88
2022-10-05T22:43:50.252Z,5.50
2022-10-05T22:46:17.791Z,4.95
2022-10-05T22:48:44.482Z,5.10
2022-10-05T22:51:11.168Z,4.50
2022-10-05T22:53:37.949Z,5.20
2022-10-05T22:56:08.744Z,5.30
2022-10-05T22:58:36.221Z,5.88
2022-10-05T23:01:08.310Z,5.57
2022-10-05T23:03:35.365Z,4.78
2022-10-05T23:06:04.840Z,6.13
2022-10-05T23:08:33.257Z,5.75
2022-10-05T23:11:02.228Z,5.05
2022-10-05T23:13:30.697Z,4.70
2022-10-05T23:15:57.608Z,5.20
2022-10-05T23:18:24.373Z,5.93
2022-10-05T23:20:55.229Z,5.25
2022-10-05T23:23:23.189Z,4.60
2022-10-05T23:25:50.240Z,5.72
2022-10-05T23:28:17.031Z,4.97
2022-10-05T23:30:43.867Z,5.22
2022-10-05T23:33:10.615Z,5.22
2022-10-05T23:35:37.230Z,5.90
2022-10-05T23:38:03.978Z,5.53
2022-10-05T23:40:30.682Z,4.97
2022-10-05T23:42:57.393Z,5.30
2022-10-05T23:45:24.150Z,4.70
2022-10-05T23:47:50.790Z,4.93
2022-10-05T23:50:17.588Z,5.50
2022-10-05T23:52:44.206Z,4.80
2022-10-05T23:55:10.839Z,5.30
2022-10-05T23:57:38.398Z,4.90
